sensor_id;sensor_type;location;lat;lon;timestamp;pressure;altitude;pressure_sealevel;temperature;humidity
8398;BME280;4236;54.504;9.588;2022-09-09T00:01:22;100734.44;;;14.56;86.98
8398;BME280;4236;54.504;9.588;2022-09-09T00:03:57;100728.84;;;14.57;86.95
8398;BME280;4236;54.504;9.588;2022-09-09T00:06:29;100725.56;;;14.55;87.59
8398;BME280;4236;54.504;9.588;2022-09-09T00:09:04;100726.38;;;14.56;87.95
8398;BME280;4236;54.504;9.588;2022-09-09T00:11:40;100728.84;;;14.57;87.80
8398;BME280;4236;54.504;9.588;2022-09-09T00:14:14;100725.09;;;14.58;87.60
8398;BME280;4236;54.504;9.588;2022-09-09T00:16:51;100723.09;;;14.54;89.30
8398;BME280;4236;54.504;9.588;2022-09-09T00:19:24;100724.53;;;14.56;88.28
8398;BME280;4236;54.504;9.588;2022-09-09T00:22:02;100727.19;;;14.56;87.29
8398;BME280;4236;54.504;9.588;2022-09-09T00:24:39;100722.66;;;14.57;87.28
8398;BME280;4236;54.504;9.588;2022-09-09T00:27:16;100719.16;;;14.56;87.71
8398;BME280;4236;54.504;9.588;2022-09-09T00:29:51;100719.97;;;14.57;87.49
8398;BME280;4236;54.504;9.588;2022-09-09T00:32:21;100716.03;;;14.59;86.43
8398;BME280;4236;54.504;9.588;2022-09-09T00:34:51;100719.28;;;14.61;86.58
8398;BME280;4236;54.504;9.588;2022-09-09T00:37:20;100711.47;;;14.60;86.51
8398;BME280;4236;54.504;9.588;2022-09-09T00:39:55;100718.47;;;14.61;87.19
8398;BME280;4236;54.504;9.588;2022-09-09T00:42:26;100721.53;;;14.64;86.24
8398;BME280;4236;54.504;9.588;2022-09-09T00:45:02;100721.53;;;14.64;85.95
8398;BME280;4236;54.504;9.588;2022-09-09T00:47:45;100725.03;;;14.65;85.73
8398;BME280;4236;54.504;9.588;2022-09-09T00:50:34;100717.56;;;14.67;85.55
8398;BME280;4236;54.504;9.588;2022-09-09T00:53:15;100706.84;;;14.67;86.00
8398;BME280;4236;54.504;9.588;2022-09-09T00:55:54;100716.34;;;14.69;85.61
8398;BME280;4236;54.504;9.588;2022-09-09T00:58:25;100706.84;;;14.67;86.32
8398;BME280;4236;54.504;9.588;2022-09-09T01:00:57;100707.06;;;14.65;86.94
8398;BME280;4236;54.504;9.588;2022-09-09T01:03:34;100710.59;;;14.66;87.07
8398;BME280;4236;54.504;9.588;2022-09-09T01:06:15;100702.75;;;14.64;86.74
8398;BME280;4236;54.504;9.588;2022-09-09T01:09:09;100698.44;;;14.63;87.34
8398;BME280;4236;54.504;9.588;2022-09-09T01:11:51;100691.19;;;14.64;86.43
8398;BME280;4236;54.504;9.588;2022-09-09T01:14:30;100701.34;;;14.62;86.92
8398;BME280;4236;54.504;9.588;2022-09-09T01:17:08;100696.34;;;14.65;86.04
8398;BME280;4236;54.504;9.588;2022-09-09T01:19:47;100695.06;;;14.68;84.58
8398;BME280;4236;54.504;9.588;2022-09-09T01:22:23;100702.53;;;14.66;85.13
8398;BME280;4236;54.504;9.588;2022-09-09T01:25:18;100707.66;;;14.67;85.40
8398;BME280;4236;54.504;9.588;2022-09-09T01:27:50;100701.03;;;14.70;85.20
8398;BME280;4236;54.504;9.588;2022-09-09T01:30:18;100704.31;;;14.72;84.24
8398;BME280;4236;54.504;9.588;2022-09-09T01:32:48;100693.13;;;14.75;83.93
8398;BME280;4236;54.504;9.588;2022-09-09T01:35:35;100684.63;;;14.78;83.55
8398;BME280;4236;54.504;9.588;2022-09-09T01:38:04;100687.06;;;14.79;83.83
8398;BME280;4236;54.504;9.588;2022-09-09T01:40:33;100685.22;;;14.80;83.75
8398;BME280;4236;54.504;9.588;2022-09-09T01:43:02;100693.03;;;14.81;83.64
8398;BME280;4236;54.504;9.588;2022-09-09T01:45:30;100696.78;;;14.80;83.67
8398;BME280;4236;54.504;9.588;2022-09-09T01:47:59;100697.16;;;14.84;83.59
8398;BME280;4236;54.504;9.588;2022-09-09T01:50:26;100695.28;;;14.84;83.67
8398;BME280;4236;54.504;9.588;2022-09-09T01:52:57;100702.88;;;14.87;83.18
8398;BME280;4236;54.504;9.588;2022-09-09T01:55:30;100701.63;;;14.90;82.70
8398;BME280;4236;54.504;9.588;2022-09-09T01:58:11;100702.41;;;14.90;82.69
8398;BME280;4236;54.504;9.588;2022-09-09T02:00:47;100702.41;;;14.90;82.91
8398;BME280;4236;54.504;9.588;2022-09-09T02:03:22;100711.53;;;14.89;83.75
8398;BME280;4236;54.504;9.588;2022-09-09T02:05:58;100708.03;;;14.89;83.77
8398;BME280;4236;54.504;9.588;2022-09-09T02:08:34;100706.19;;;14.89;83.88
8398;BME280;4236;54.504;9.588;2022-09-09T02:11:07;100715.63;;;14.92;83.40
8398;BME280;4236;54.504;9.588;2022-09-09T02:13:40;100712.38;;;14.90;84.05
8398;BME280;4236;54.504;9.588;2022-09-09T02:16:11;100710.47;;;14.90;84.37
8398;BME280;4236;54.504;9.588;2022-09-09T02:18:44;100705.94;;;14.91;84.54
8398;BME280;4236;54.504;9.588;2022-09-09T02:21:14;100700.56;;;14.91;85.02
8398;BME280;4236;54.504;9.588;2022-09-09T02:23:45;100696.72;;;14.87;85.81
8398;BME280;4236;54.504;9.588;2022-09-09T02:26:14;100692.00;;;14.82;86.07
8398;BME280;4236;54.504;9.588;2022-09-09T02:28:48;100694.09;;;14.80;85.93
8398;BME280;4236;54.504;9.588;2022-09-09T02:31:19;100693.47;;;14.78;85.78
8398;BME280;4236;54.504;9.588;2022-09-09T02:33:51;100698.50;;;14.75;86.09
8398;BME280;4236;54.504;9.588;2022-09-09T02:36:22;100699.09;;;14.77;85.44
8398;BME280;4236;54.504;9.588;2022-09-09T02:38:51;100698.50;;;14.75;85.14
8398;BME280;4236;54.504;9.588;2022-09-09T02:41:20;100698.50;;;14.75;85.48
8398;BME280;4236;54.504;9.588;2022-09-09T02:43:52;100705.16;;;14.72;85.74
8398;BME280;4236;54.504;9.588;2022-09-09T02:46:34;100698.72;;;14.73;85.35
8398;BME280;4236;54.504;9.588;2022-09-09T02:49:08;100704.09;;;14.73;85.80
8398;BME280;4236;54.504;9.588;2022-09-09T02:51:40;100704.31;;;14.72;85.93
8398;BME280;4236;54.504;9.588;2022-09-09T02:54:19;100698.97;;;14.72;85.85
8398;BME280;4236;54.504;9.588;2022-09-09T02:56:52;100702.47;;;14.72;85.62
8398;BME280;4236;54.504;9.588;2022-09-09T02:59:22;100710.28;;;14.74;85.35
8398;BME280;4236;54.504;9.588;2022-09-09T03:01:52;100713.56;;;14.76;85.55
8398;BME280;4236;54.504;9.588;2022-09-09T03:04:20;100704.47;;;14.77;85.35
8398;BME280;4236;54.504;9.588;2022-09-09T03:06:48;100709.59;;;14.78;85.00
8398;BME280;4236;54.504;9.588;2022-09-09T03:09:15;100706.31;;;14.76;86.09
8398;BME280;4236;54.504;9.588;2022-09-09T03:11:43;100704.22;;;14.78;85.84
8398;BME280;4236;54.504;9.588;2022-09-09T03:14:11;100704.47;;;14.77;86.31
8398;BME280;4236;54.504;9.588;2022-09-09T03:16:40;100706.13;;;14.78;86.50
8398;BME280;4236;54.504;9.588;2022-09-09T03:19:09;100710.66;;;14.77;86.62
8398;BME280;4236;54.504;9.588;2022-09-09T03:21:36;100714.38;;;14.76;87.16
8398;BME280;4236;54.504;9.588;2022-09-09T03:24:04;100714.97;;;14.78;86.71
8398;BME280;4236;54.504;9.588;2022-09-09T03:26:33;100716.84;;;14.78;86.63
8398;BME280;4236;54.504;9.588;2022-09-09T03:29:00;100720.81;;;14.75;87.41
8398;BME280;4236;54.504;9.588;2022-09-09T03:31:28;100706.56;;;14.75;88.19
8398;BME280;4236;54.504;9.588;2022-09-09T03:33:58;100698.50;;;14.75;88.15
8398;BME280;4236;54.504;9.588;2022-09-09T03:36:26;100711.09;;;14.74;88.10
8398;BME280;4236;54.504;9.588;2022-09-09T03:38:54;100706.78;;;14.73;88.48
8398;BME280;4236;54.504;9.588;2022-09-09T03:41:22;100714.00;;;14.73;88.85
8398;BME280;4236;54.504;9.588;2022-09-09T03:43:51;100713.19;;;14.72;89.55
8398;BME280;4236;54.504;9.588;2022-09-09T03:46:19;100717.13;;;14.70;89.86
8398;BME280;4236;54.504;9.588;2022-09-09T03:48:46;100717.13;;;14.70;89.63
8398;BME280;4236;54.504;9.588;2022-09-09T03:51:15;100727.28;;;14.68;89.95
8398;BME280;4236;54.504;9.588;2022-09-09T03:53:43;100724.84;;;14.66;90.93
8398;BME280;4236;54.504;9.588;2022-09-09T03:56:11;100725.03;;;14.65;90.49
8398;BME280;4236;54.504;9.588;2022-09-09T03:58:38;100722.16;;;14.66;89.43
8398;BME280;4236;54.504;9.588;2022-09-09T04:01:09;100718.63;;;14.66;89.47
8398;BME280;4236;54.504;9.588;2022-09-09T04:03:40;100715.97;;;14.66;89.05
8398;BME280;4236;54.504;9.588;2022-09-09T04:06:09;100725.03;;;14.65;89.77
8398;BME280;4236;54.504;9.588;2022-09-09T04:08:41;100730.19;;;14.66;89.92
8398;BME280;4236;54.504;9.588;2022-09-09T04:11:08;100723.19;;;14.65;90.13
8398;BME280;4236;54.504;9.588;2022-09-09T04:13:37;100720.72;;;14.64;90.30
8398;BME280;4236;54.504;9.588;2022-09-09T04:16:06;100717.00;;;14.65;90.32
8398;BME280;4236;54.504;9.588;2022-09-09T04:18:34;100714.75;;;14.62;91.02
8398;BME280;4236;54.504;9.588;2022-09-09T04:21:03;100714.38;;;14.58;92.09
8398;BME280;4236;54.504;9.588;2022-09-09T04:23:32;100716.47;;;14.56;92.51
8398;BME280;4236;54.504;9.588;2022-09-09T04:26:03;100725.56;;;14.55;93.93
8398;BME280;4236;54.504;9.588;2022-09-09T04:28:33;100720.44;;;14.54;93.54
8398;BME280;4236;54.504;9.588;2022-09-09T04:31:06;100724.72;;;14.55;93.17
8398;BME280;4236;54.504;9.588;2022-09-09T04:33:35;100715.06;;;14.54;93.01
8398;BME280;4236;54.504;9.588;2022-09-09T04:36:06;100717.94;;;14.52;93.59
8398;BME280;4236;54.504;9.588;2022-09-09T04:38:34;100715.94;;;14.48;94.12
8398;BME280;4236;54.504;9.588;2022-09-09T04:41:03;100730.19;;;14.48;94.38
8398;BME280;4236;54.504;9.588;2022-09-09T04:43:31;100739.03;;;14.49;93.25
8398;BME280;4236;54.504;9.588;2022-09-09T04:45:58;100730.78;;;14.50;92.58
8398;BME280;4236;54.504;9.588;2022-09-09T04:48:26;100732.44;;;14.51;92.93
8398;BME280;4236;54.504;9.588;2022-09-09T04:50:55;100733.91;;;14.47;94.58
8398;BME280;4236;54.504;9.588;2022-09-09T04:53:23;100735.75;;;14.47;94.72
8398;BME280;4236;54.504;9.588;2022-09-09T04:55:51;100739.84;;;14.49;93.43
8398;BME280;4236;54.504;9.588;2022-09-09T04:58:21;100744.63;;;14.47;94.48
8398;BME280;4236;54.504;9.588;2022-09-09T05:00:49;100747.31;;;14.47;94.03
8398;BME280;4236;54.504;9.588;2022-09-09T05:03:18;100753.28;;;14.49;93.41
8398;BME280;4236;54.504;9.588;2022-09-09T05:05:45;100760.50;;;14.49;93.50
8398;BME280;4236;54.504;9.588;2022-09-09T05:08:13;100751.72;;;14.42;97.10
8398;BME280;4236;54.504;9.588;2022-09-09T05:10:41;100759.13;;;14.39;97.49
8398;BME280;4236;54.504;9.588;2022-09-09T05:13:09;100762.06;;;14.38;97.90
8398;BME280;4236;54.504;9.588;2022-09-09T05:15:38;100768.63;;;14.42;96.73
8398;BME280;4236;54.504;9.588;2022-09-09T05:18:07;100770.25;;;14.43;96.77
8398;BME280;4236;54.504;9.588;2022-09-09T05:20:34;100766.53;;;14.44;96.38
8398;BME280;4236;54.504;9.588;2022-09-09T05:23:02;100769.44;;;14.43;97.32
8398;BME280;4236;54.504;9.588;2022-09-09T05:25:30;100771.91;;;14.44;97.20
8398;BME280;4236;54.504;9.588;2022-09-09T05:27:58;100774.00;;;14.42;97.93
8398;BME280;4236;54.504;9.588;2022-09-09T05:30:25;100781.44;;;14.40;100.00
8398;BME280;4236;54.504;9.588;2022-09-09T05:32:56;100775.25;;;14.39;100.00
8398;BME280;4236;54.504;9.588;2022-09-09T05:35:24;100771.91;;;14.44;99.02
8398;BME280;4236;54.504;9.588;2022-09-09T05:37:51;100774.34;;;14.46;99.52
8398;BME280;4236;54.504;9.588;2022-09-09T05:40:19;100771.09;;;14.44;100.00
8398;BME280;4236;54.504;9.588;2022-09-09T05:42:47;100774.34;;;14.46;100.00
8398;BME280;4236;54.504;9.588;2022-09-09T05:45:15;100777.66;;;14.48;100.00
8398;BME280;4236;54.504;9.588;2022-09-09T05:47:43;100776.41;;;14.50;100.00
8398;BME280;4236;54.504;9.588;2022-09-09T05:50:12;100770.19;;;14.50;100.00
8398;BME280;4236;54.504;9.588;2022-09-09T05:52:42;100769.31;;;14.56;100.00
8398;BME280;4236;54.504;9.588;2022-09-09T05:55:10;100771.13;;;14.62;100.00
8398;BME280;4236;54.504;9.588;2022-09-09T05:57:38;100763.00;;;14.68;100.00
8398;BME280;4236;54.504;9.588;2022-09-09T06:00:07;100771.56;;;14.77;100.00
8398;BME280;4236;54.504;9.588;2022-09-09T06:02:35;100776.50;;;14.80;100.00
8398;BME280;4236;54.504;9.588;2022-09-09T06:05:06;100780.38;;;14.84;100.00
8398;BME280;4236;54.504;9.588;2022-09-09T06:07:36;100778.34;;;14.79;100.00
8398;BME280;4236;54.504;9.588;2022-09-09T06:10:04;100788.44;;;14.84;100.00
8398;BME280;4236;54.504;9.588;2022-09-09T06:12:32;100784.63;;;14.91;100.00
8398;BME280;4236;54.504;9.588;2022-09-09T06:14:59;100790.25;;;14.90;100.00
8398;BME280;4236;54.504;9.588;2022-09-09T06:17:27;100784.47;;;14.86;100.00
8398;BME280;4236;54.504;9.588;2022-09-09T06:19:55;100785.31;;;14.87;100.00
8398;BME280;4236;54.504;9.588;2022-09-09T06:22:22;100786.09;;;14.87;100.00
8398;BME280;4236;54.504;9.588;2022-09-09T06:24:51;100793.72;;;14.90;100.00
8398;BME280;4236;54.504;9.588;2022-09-09T06:27:19;100794.47;;;14.98;100.00
8398;BME280;4236;54.504;9.588;2022-09-09T06:29:47;100789.25;;;15.03;100.00
8398;BME280;4236;54.504;9.588;2022-09-09T06:32:15;100783.41;;;15.06;100.00
8398;BME280;4236;54.504;9.588;2022-09-09T06:34:43;100784.03;;;15.08;100.00
8398;BME280;4236;54.504;9.588;2022-09-09T06:37:11;100800.59;;;15.05;100.00
8398;BME280;4236;54.504;9.588;2022-09-09T06:39:39;100804.25;;;15.10;100.00
8398;BME280;4236;54.504;9.588;2022-09-09T06:42:08;100806.94;;;15.10;100.00
8398;BME280;4236;54.504;9.588;2022-09-09T06:44:36;100808.09;;;15.14;100.00
8398;BME280;4236;54.504;9.588;2022-09-09T06:47:04;100812.59;;;15.20;100.00
8398;BME280;4236;54.504;9.588;2022-09-09T06:49:31;100817.69;;;15.28;100.00
8398;BME280;4236;54.504;9.588;2022-09-09T06:51:59;100813.19;;;15.40;100.00
8398;BME280;4236;54.504;9.588;2022-09-09T06:54:26;100821.63;;;15.44;100.00
8398;BME280;4236;54.504;9.588;2022-09-09T06:56:54;100814.13;;;15.46;100.00
8398;BME280;4236;54.504;9.588;2022-09-09T06:59:24;100812.06;;;15.48;100.00
8398;BME280;4236;54.504;9.588;2022-09-09T07:01:52;100812.06;;;15.48;100.00
8398;BME280;4236;54.504;9.588;2022-09-09T07:04:21;100822.53;;;15.38;100.00
8398;BME280;4236;54.504;9.588;2022-09-09T07:06:49;100818.63;;;15.34;100.00
8398;BME280;4236;54.504;9.588;2022-09-09T07:09:18;100833.28;;;15.38;100.00
8398;BME280;4236;54.504;9.588;2022-09-09T07:11:48;100814.09;;;15.53;100.00
8398;BME280;4236;54.504;9.588;2022-09-09T07:14:16;100826.31;;;15.67;100.00
8398;BME280;4236;54.504;9.588;2022-09-09T07:16:46;100820.75;;;15.80;100.00
8398;BME280;4236;54.504;9.588;2022-09-09T07:19:14;100817.19;;;15.97;100.00
8398;BME280;4236;54.504;9.588;2022-09-09T07:21:42;100827.59;;;16.05;100.00
8398;BME280;4236;54.504;9.588;2022-09-09T07:24:11;100819.06;;;16.09;100.00
8398;BME280;4236;54.504;9.588;2022-09-09T07:26:40;100812.03;;;16.08;100.00
8398;BME280;4236;54.504;9.588;2022-09-09T07:29:08;100813.13;;;16.18;100.00
8398;BME280;4236;54.504;9.588;2022-09-09T07:31:37;100813.00;;;16.25;100.00
8398;BME280;4236;54.504;9.588;2022-09-09T07:34:07;100806.59;;;16.37;100.00
8398;BME280;4236;54.504;9.588;2022-09-09T07:36:38;100809.19;;;16.55;100.00
8398;BME280;4236;54.504;9.588;2022-09-09T07:39:07;100802.78;;;16.68;100.00
8398;BME280;4236;54.504;9.588;2022-09-09T07:41:37;100812.03;;;16.72;100.00
8398;BME280;4236;54.504;9.588;2022-09-09T07:44:07;100818.56;;;16.76;100.00
8398;BME280;4236;54.504;9.588;2022-09-09T07:46:37;100819.50;;;16.70;100.00
8398;BME280;4236;54.504;9.588;2022-09-09T07:49:07;100813.78;;;16.78;100.00
8398;BME280;4236;54.504;9.588;2022-09-09T07:51:37;100818.06;;;16.91;100.00
8398;BME280;4236;54.504;9.588;2022-09-09T07:54:08;100819.47;;;17.17;100.00
8398;BME280;4236;54.504;9.588;2022-09-09T07:56:37;100821.53;;;17.38;100.00
8398;BME280;4236;54.504;9.588;2022-09-09T07:59:06;100826.84;;;17.61;100.00
8398;BME280;4236;54.504;9.588;2022-09-09T08:01:36;100825.78;;;17.90;100.00
8398;BME280;4236;54.504;9.588;2022-09-09T08:04:09;100817.47;;;18.08;100.00
8398;BME280;4236;54.504;9.588;2022-09-09T08:06:38;100827.94;;;18.05;100.00
8398;BME280;4236;54.504;9.588;2022-09-09T08:09:07;100826.13;;;18.10;100.00
8398;BME280;4236;54.504;9.588;2022-09-09T08:11:35;100831.25;;;17.95;100.00
8398;BME280;4236;54.504;9.588;2022-09-09T08:14:04;100824.63;;;17.86;100.00
8398;BME280;4236;54.504;9.588;2022-09-09T08:16:33;100821.91;;;17.86;100.00
8398;BME280;4236;54.504;9.588;2022-09-09T08:19:03;100817.09;;;18.33;100.00
8398;BME280;4236;54.504;9.588;2022-09-09T08:21:34;100828.03;;;18.76;100.00
8398;BME280;4236;54.504;9.588;2022-09-09T08:24:03;100831.50;;;19.10;100.00
8398;BME280;4236;54.504;9.588;2022-09-09T08:26:34;100828.34;;;19.18;100.00
8398;BME280;4236;54.504;9.588;2022-09-09T08:29:03;100828.47;;;19.28;100.00
8398;BME280;4236;54.504;9.588;2022-09-09T08:31:33;100829.00;;;19.47;100.00
8398;BME280;4236;54.504;9.588;2022-09-09T08:34:01;100831.59;;;19.59;100.00
8398;BME280;4236;54.504;9.588;2022-09-09T08:36:33;100833.63;;;19.73;100.00
8398;BME280;4236;54.504;9.588;2022-09-09T08:39:02;100830.56;;;20.18;100.00
8398;BME280;4236;54.504;9.588;2022-09-09T08:41:41;100825.03;;;20.35;100.00
8398;BME280;4236;54.504;9.588;2022-09-09T08:44:19;100830.31;;;20.52;100.00
8398;BME280;4236;54.504;9.588;2022-09-09T08:46:55;100827.56;;;20.47;100.00
8398;BME280;4236;54.504;9.588;2022-09-09T08:49:41;100824.47;;;20.70;100.00
8398;BME280;4236;54.504;9.588;2022-09-09T08:52:19;100828.97;;;20.96;100.00
8398;BME280;4236;54.504;9.588;2022-09-09T08:54:49;100835.69;;;20.83;100.00
8398;BME280;4236;54.504;9.588;2022-09-09T08:57:20;100844.94;;;20.92;100.00
8398;BME280;4236;54.504;9.588;2022-09-09T08:59:54;100851.41;;;20.81;100.00
8398;BME280;4236;54.504;9.588;2022-09-09T09:02:26;100851.66;;;20.85;100.00
8398;BME280;4236;54.504;9.588;2022-09-09T09:05:09;100850.06;;;20.84;100.00
8398;BME280;4236;54.504;9.588;2022-09-09T09:07:54;100850.13;;;21.46;100.00
8398;BME280;4236;54.504;9.588;2022-09-09T09:10:36;100857.78;;;21.64;100.00
8398;BME280;4236;54.504;9.588;2022-09-09T09:13:13;100861.44;;;21.33;100.00
8398;BME280;4236;54.504;9.588;2022-09-09T09:15:44;100860.44;;;21.44;100.00
8398;BME280;4236;54.504;9.588;2022-09-09T09:18:15;100862.81;;;21.30;100.00
8398;BME280;4236;54.504;9.588;2022-09-09T09:20:50;100857.22;;;21.05;100.00
8398;BME280;4236;54.504;9.588;2022-09-09T09:23:24;100865.81;;;20.92;100.00
8398;BME280;4236;54.504;9.588;2022-09-09T09:25:55;100868.53;;;20.92;100.00
8398;BME280;4236;54.504;9.588;2022-09-09T09:28:25;100859.66;;;21.07;100.00
8398;BME280;4236;54.504;9.588;2022-09-09T09:30:55;100861.91;;;21.15;100.00
8398;BME280;4236;54.504;9.588;2022-09-09T09:33:28;100857.38;;;21.30;100.00
8398;BME280;4236;54.504;9.588;2022-09-09T09:35:59;100855.31;;;21.52;100.00
8398;BME280;4236;54.504;9.588;2022-09-09T09:38:28;100859.41;;;21.60;100.00
8398;BME280;4236;54.504;9.588;2022-09-09T09:41:16;100858.91;;;21.73;100.00
8398;BME280;4236;54.504;9.588;2022-09-09T09:43:53;100857.53;;;21.76;100.00
8398;BME280;4236;54.504;9.588;2022-09-09T09:46:22;100855.31;;;21.58;100.00
8398;BME280;4236;54.504;9.588;2022-09-09T09:48:59;100860.50;;;21.69;100.00
8398;BME280;4236;54.504;9.588;2022-09-09T09:51:28;100863.78;;;21.71;100.00
8398;BME280;4236;54.504;9.588;2022-09-09T09:54:18;100854.78;;;21.61;100.00
8398;BME280;4236;54.504;9.588;2022-09-09T09:56:49;100854.19;;;21.43;100.00
8398;BME280;4236;54.504;9.588;2022-09-09T09:59:22;100869.25;;;21.19;100.00
8398;BME280;4236;54.504;9.588;2022-09-09T10:02:21;100869.16;;;21.04;100.00
8398;BME280;4236;54.504;9.588;2022-09-09T10:05:00;100860.97;;;21.41;100.00
8398;BME280;4236;54.504;9.588;2022-09-09T10:07:28;100858.38;;;21.81;100.00
8398;BME280;4236;54.504;9.588;2022-09-09T10:09:58;100857.38;;;22.58;100.00
8398;BME280;4236;54.504;9.588;2022-09-09T10:12:36;100857.41;;;22.83;100.00
8398;BME280;4236;54.504;9.588;2022-09-09T10:15:25;100855.78;;;22.67;88.70
8398;BME280;4236;54.504;9.588;2022-09-09T10:18:03;100854.69;;;22.78;97.07
8398;BME280;4236;54.504;9.588;2022-09-09T10:20:43;100857.94;;;22.55;87.41
8398;BME280;4236;54.504;9.588;2022-09-09T10:23:24;100861.19;;;22.62;93.17
8398;BME280;4236;54.504;9.588;2022-09-09T10:26:10;100862.00;;;22.52;92.05
8398;BME280;4236;54.504;9.588;2022-09-09T10:29:02;100877.78;;;22.45;89.53
8398;BME280;4236;54.504;9.588;2022-09-09T10:31:40;100882.13;;;22.26;90.61
8398;BME280;4236;54.504;9.588;2022-09-09T10:34:19;100880.47;;;22.10;85.52
8398;BME280;4236;54.504;9.588;2022-09-09T10:36:56;100876.09;;;21.99;86.63
8398;BME280;4236;54.504;9.588;2022-09-09T10:39:33;100877.19;;;22.03;84.30
8398;BME280;4236;54.504;9.588;2022-09-09T10:42:12;100885.63;;;22.07;88.83
8398;BME280;4236;54.504;9.588;2022-09-09T10:45:01;100886.13;;;21.93;84.11
8398;BME280;4236;54.504;9.588;2022-09-09T10:47:44;100885.88;;;22.00;89.14
8398;BME280;4236;54.504;9.588;2022-09-09T10:50:34;100879.88;;;21.88;84.81
8398;BME280;4236;54.504;9.588;2022-09-09T10:53:42;100882.25;;;21.74;86.78
8398;BME280;4236;54.504;9.588;2022-09-09T10:56:16;100880.69;;;21.88;90.71
8398;BME280;4236;54.504;9.588;2022-09-09T10:58:50;100883.78;;;22.57;90.75
8398;BME280;4236;54.504;9.588;2022-09-09T11:01:22;100881.63;;;22.70;81.31
8398;BME280;4236;54.504;9.588;2022-09-09T11:03:55;100881.81;;;23.03;92.88
8398;BME280;4236;54.504;9.588;2022-09-09T11:06:30;100884.56;;;23.08;86.17
8398;BME280;4236;54.504;9.588;2022-09-09T11:09:02;100880.47;;;23.06;80.98
8398;BME280;4236;54.504;9.588;2022-09-09T11:11:32;100892.78;;;23.73;91.21
8398;BME280;4236;54.504;9.588;2022-09-09T11:14:10;100881.03;;;23.82;82.71
8398;BME280;4236;54.504;9.588;2022-09-09T11:16:42;100882.72;;;24.22;89.85
8398;BME280;4236;54.504;9.588;2022-09-09T11:19:16;100882.47;;;24.52;83.03
8398;BME280;4236;54.504;9.588;2022-09-09T11:21:48;100887.16;;;24.47;75.05
8398;BME280;4236;54.504;9.588;2022-09-09T11:24:21;100873.72;;;24.21;70.10
8398;BME280;4236;54.504;9.588;2022-09-09T11:26:53;100883.88;;;24.06;73.14
8398;BME280;4236;54.504;9.588;2022-09-09T11:30:03;100884.94;;;24.15;79.63
8398;BME280;4236;54.504;9.588;2022-09-09T11:35:40;100892.13;;;24.40;75.76
8398;BME280;4236;54.504;9.588;2022-09-09T11:38:21;100881.63;;;24.91;76.76
8398;BME280;4236;54.504;9.588;2022-09-09T11:40:56;100884.53;;;25.23;75.53
8398;BME280;4236;54.504;9.588;2022-09-09T11:43:31;100888.50;;;25.36;74.80
8398;BME280;4236;54.504;9.588;2022-09-09T11:46:03;100891.59;;;25.00;68.79
8398;BME280;4236;54.504;9.588;2022-09-09T11:48:35;100893.25;;;25.25;77.06
8398;BME280;4236;54.504;9.588;2022-09-09T11:51:06;100883.41;;;25.48;70.31
8398;BME280;4236;54.504;9.588;2022-09-09T11:53:51;100883.41;;;25.48;67.46
8398;BME280;4236;54.504;9.588;2022-09-09T11:56:27;100890.66;;;25.62;72.00
8398;BME280;4236;54.504;9.588;2022-09-09T11:59:00;100886.22;;;25.66;65.01
8398;BME280;4236;54.504;9.588;2022-09-09T12:01:37;100887.91;;;25.39;62.81
8398;BME280;4236;54.504;9.588;2022-09-09T12:04:33;100892.22;;;24.92;66.06
8398;BME280;4236;54.504;9.588;2022-09-09T12:07:05;100892.16;;;24.68;64.59
8398;BME280;4236;54.504;9.588;2022-09-09T12:09:51;100895.63;;;24.45;65.86
8398;BME280;4236;54.504;9.588;2022-09-09T12:12:25;100891.88;;;24.36;65.56
8398;BME280;4236;54.504;9.588;2022-09-09T12:15:18;100890.47;;;24.72;73.34
8398;BME280;4236;54.504;9.588;2022-09-09T12:17:50;100880.75;;;24.95;61.99
8398;BME280;4236;54.504;9.588;2022-09-09T12:20:20;100884.53;;;24.65;60.23
8398;BME280;4236;54.504;9.588;2022-09-09T12:23:04;100894.09;;;24.34;66.29
8398;BME280;4236;54.504;9.588;2022-09-09T12:25:44;100892.88;;;24.06;66.50
8398;BME280;4236;54.504;9.588;2022-09-09T12:28:18;100894.72;;;24.21;68.74
8398;BME280;4236;54.504;9.588;2022-09-09T12:30:56;100891.25;;;24.44;64.34
8398;BME280;4236;54.504;9.588;2022-09-09T12:33:34;100899.44;;;24.78;63.13
8398;BME280;4236;54.504;9.588;2022-09-09T12:36:04;100895.25;;;24.91;64.98
8398;BME280;4236;54.504;9.588;2022-09-09T12:38:36;100884.38;;;25.14;57.39
8398;BME280;4236;54.504;9.588;2022-09-09T12:41:04;100885.28;;;25.28;58.91
8398;BME280;4236;54.504;9.588;2022-09-09T12:43:32;100886.97;;;25.24;63.55
8398;BME280;4236;54.504;9.588;2022-09-09T12:46:02;100880.81;;;25.38;64.63
8398;BME280;4236;54.504;9.588;2022-09-09T12:48:36;100888.28;;;25.56;63.73
8398;BME280;4236;54.504;9.588;2022-09-09T12:51:07;100884.38;;;25.62;55.72
8398;BME280;4236;54.504;9.588;2022-09-09T12:53:44;100881.25;;;25.50;60.83
8398;BME280;4236;54.504;9.588;2022-09-09T12:56:19;100879.31;;;25.26;61.01
8398;BME280;4236;54.504;9.588;2022-09-09T12:58:47;100878.44;;;25.31;58.88
8398;BME280;4236;54.504;9.588;2022-09-09T13:01:21;100871.69;;;25.47;55.49
8398;BME280;4236;54.504;9.588;2022-09-09T13:03:51;100874.09;;;25.54;52.70
8398;BME280;4236;54.504;9.588;2022-09-09T13:06:21;100868.63;;;25.54;54.29
8398;BME280;4236;54.504;9.588;2022-09-09T13:08:55;100874.66;;;25.27;53.22
8398;BME280;4236;54.504;9.588;2022-09-09T13:11:26;100872.69;;;24.80;57.66
8398;BME280;4236;54.504;9.588;2022-09-09T13:13:57;100872.19;;;24.73;57.97
8398;BME280;4236;54.504;9.588;2022-09-09T13:16:26;100877.56;;;24.49;56.92
8398;BME280;4236;54.504;9.588;2022-09-09T13:19:00;100869.97;;;24.46;57.04
8398;BME280;4236;54.504;9.588;2022-09-09T13:21:33;100867.34;;;24.70;59.80
8398;BME280;4236;54.504;9.588;2022-09-09T13:24:01;100873.25;;;24.48;54.96
8398;BME280;4236;54.504;9.588;2022-09-09T13:26:30;100878.34;;;24.21;58.67
8398;BME280;4236;54.504;9.588;2022-09-09T13:29:08;100878.16;;;24.12;59.17
8398;BME280;4236;54.504;9.588;2022-09-09T13:31:42;100870.09;;;23.87;55.66
8398;BME280;4236;54.504;9.588;2022-09-09T13:34:12;100880.38;;;24.00;59.49
8398;BME280;4236;54.504;9.588;2022-09-09T13:36:41;100876.78;;;24.10;58.03
8398;BME280;4236;54.504;9.588;2022-09-09T13:39:15;100870.38;;;24.30;58.31